حائل, السعودية

08:33 PM AST on أمتèبر 31, 2014 (GMT +0300)
Hail | Change Station
CLOSE
Current Station
Airport
Location: Hail,
Elevation: 3330 ft
Nearby Weather Stations

Elev 3330 ft 27.44 °N, 41.69 °E | Updated 33 minutes ago

Clear
صافية
72 °F
Feels Like 72 °F
N
7
ريح متغير ريح from NNW

هذا اليوم
High -- | Low -- °F
--% Chance of Precip.
Yesterday
High -- | Low -- °F
Precip. -- في
6:22 AM 5:30 PM
الربع الاول, 57% visible
الضغط 29.98 في
وضوح الرؤية -9999.0 أميال
سحابات
نقطة الندى 43 °F
الرطوبة 35%
Rainfall 0.00 في
عمق الثلج Not available.
الأشعة فوق البنفسجية Not available.
Pollen Not available.
جودة الهواء Not available.
Flu Activity Not available.
METAR OEHL 311700Z 33006KT CAVOK 22/06 Q1015

More Conditions Fewer Conditions

الضغط 29.98 في
وضوح الرؤية -9999.0 أميال
سحابات
نقطة الندى 43 °F
الرطوبة 35%
Rainfall 0.00 في
عمق الثلج Not available.
الأشعة فوق البنفسجية Not available.
Pollen Not available.
جودة الهواء Not available.
Flu Activity Not available.
METAR OEHL 311700Z 33006KT CAVOK 22/06 Q1015

More Conditions Fewer Conditions

10-Day Weather Forecast

Almanac

علم الفلك

Oct. 31, 2014 Rise Set
Actual Time
Civil Twilight
Nautical Twilight
Astronomical Twilight
قمر
Length Of Visible Light
طول الیوم
Tomorrow will be .
, % of the Moon is Illuminated

Today's Extremes

Country Highs Country Lows

Community

WunderPhotos

Upload Photos

1,766,670 photos uploaded!

WunderBlogs® & News

Nearby

جودة الهواء

  جودة الهواء AQ Index Pollutant
Not available.

عمق الثلج

Station Depth Elevation

Earthquake Activity

City Distance Mag. Time & Date
Minimum magnitude displayed is 2.5.

Coastal Water Temperatures

مكان درجات الحرارة

Nearby Weather Stations